Terminal Aerodrome Forecast
Issued by NWS

Current Version | Previous Version | Text Only | Print | Product List | Glossary On
Versions: 1 2 3 4 5 6 7 8 9 10 11 12 13 14
000
FTUS42 TJSJ 070533
TAFJSJ
TAF
TJSJ 070533Z 0706/0806 09004KT P6SM SCT025 SCT050
     FM071430 07012KT P6SM VCSH FEW025
     FM071800 07018KT P6SM FEW025
     FM072300 08012KT P6SM FEW030 FEW060=

USA.gov is the U.S. government's official web portal to all federal, state and local government web resources and services.